createdAt,value
2022-11-07T00:00:08.975Z,71.95
2022-11-07T00:02:37.830Z,72.53
2022-11-07T00:05:04.569Z,72.44
2022-11-07T00:07:31.132Z,71.72
2022-11-07T00:09:57.661Z,72.19
2022-11-07T00:12:24.285Z,71.73
2022-11-07T00:14:50.860Z,71.96
2022-11-07T00:17:18.529Z,72.33
2022-11-07T00:19:45.093Z,72.28
2022-11-07T00:22:11.657Z,72.70
2022-11-07T00:24:38.241Z,72.09
2022-11-07T00:27:04.847Z,72.02
2022-11-07T00:29:31.369Z,72.06
2022-11-07T00:31:59.698Z,73.12
2022-11-07T00:34:26.351Z,72.75
2022-11-07T00:36:52.881Z,72.71
2022-11-07T00:39:19.516Z,72.70
2022-11-07T00:41:49.495Z,72.31
2022-11-07T00:44:16.286Z,72.56
2022-11-07T00:46:42.802Z,72.83
2022-11-07T00:49:09.426Z,72.94
2022-11-07T00:51:36.001Z,72.77
2022-11-07T00:54:03.557Z,73.10
2022-11-07T00:56:30.127Z,72.84
2022-11-07T00:58:57.105Z,72.84
2022-11-07T01:01:25.194Z,72.66
2022-11-07T01:04:10.339Z,72.68
2022-11-07T01:06:37.883Z,72.58
2022-11-07T01:09:05.494Z,72.41
2022-11-07T01:11:32.137Z,73.01
2022-11-07T01:13:59.980Z,73.20
2022-11-07T01:16:27.260Z,73.41
2022-11-07T01:18:53.749Z,74.17
2022-11-07T01:21:20.566Z,74.26
2022-11-07T01:23:47.269Z,74.37
2022-11-07T01:26:14.157Z,75.00
2022-11-07T01:28:40.774Z,75.07
2022-11-07T01:31:08.612Z,75.21
2022-11-07T01:33:35.250Z,75.77
2022-11-07T01:36:06.100Z,75.62
2022-11-07T01:38:32.938Z,75.56
2022-11-07T01:41:18.254Z,76.40
2022-11-07T01:43:44.873Z,76.22
2022-11-07T01:46:11.434Z,76.43
2022-11-07T01:48:38.199Z,76.59
2022-11-07T01:51:04.797Z,76.50
2022-11-07T01:53:31.327Z,76.35
2022-11-07T01:55:57.822Z,76.73
2022-11-07T01:58:24.350Z,76.67
2022-11-07T02:00:50.908Z,77.04
2022-11-07T02:03:17.731Z,76.74
2022-11-07T02:05:45.917Z,76.81
2022-11-07T02:08:12.476Z,76.68
2022-11-07T02:10:39.471Z,76.75
2022-11-07T02:13:06.298Z,76.38
2022-11-07T02:15:33.295Z,76.11
2022-11-07T02:18:00.440Z,75.42
2022-11-07T02:20:27.014Z,75.35
2022-11-07T02:22:56.856Z,75.19
2022-11-07T02:25:23.776Z,74.77
2022-11-07T02:27:51.572Z,74.61
2022-11-07T02:30:19.756Z,74.66
2022-11-07T02:32:46.470Z,74.25
2022-11-07T02:35:31.965Z,74.42
2022-11-07T02:37:58.754Z,74.72
2022-11-07T02:40:25.553Z,74.60
2022-11-07T02:42:52.077Z,74.84
2022-11-07T02:45:19.303Z,75.25
2022-11-07T02:47:45.840Z,75.24
2022-11-07T02:50:14.552Z,75.38
2022-11-07T02:52:41.482Z,75.45
2022-11-07T02:55:08.250Z,75.42
2022-11-07T02:57:35.091Z,75.07
2022-11-07T03:00:01.666Z,74.81
2022-11-07T03:02:28.443Z,74.85
2022-11-07T03:04:55.088Z,74.58
2022-11-07T03:07:21.951Z,74.46
2022-11-07T03:09:48.529Z,74.31
2022-11-07T03:12:15.087Z,74.16
2022-11-07T03:14:41.633Z,74.27
2022-11-07T03:17:08.278Z,74.46
2022-11-07T03:19:34.811Z,73.89
2022-11-07T03:22:01.336Z,73.77
2022-11-07T03:24:27.857Z,73.72
2022-11-07T03:26:54.405Z,74.30
2022-11-07T03:29:21.951Z,73.94
2022-11-07T03:31:48.470Z,74.15
2022-11-07T03:34:15.363Z,73.44
2022-11-07T03:36:42.119Z,73.79
2022-11-07T03:39:08.793Z,73.70
2022-11-07T03:41:35.315Z,73.56
2022-11-07T03:44:01.939Z,73.15
2022-11-07T03:46:28.424Z,72.97
2022-11-07T03:48:54.977Z,72.73
2022-11-07T03:51:21.753Z,72.97
2022-11-07T03:53:48.765Z,72.60
2022-11-07T03:56:15.380Z,72.75
2022-11-07T03:58:41.978Z,72.64
2022-11-07T04:01:10.436Z,72.83
2022-11-07T04:03:37.076Z,72.67
2022-11-07T04:06:03.596Z,72.61
2022-11-07T04:08:30.176Z,72.73
2022-11-07T04:10:56.658Z,72.39
2022-11-07T04:13:41.970Z,72.80
2022-11-07T04:16:27.672Z,71.71
2022-11-07T04:18:54.334Z,72.01
2022-11-07T04:21:20.971Z,72.18
2022-11-07T04:23:47.621Z,72.33
2022-11-07T04:26:32.701Z,71.88
2022-11-07T04:28:59.258Z,72.30
2022-11-07T04:31:25.777Z,71.84
2022-11-07T04:33:52.563Z,71.69
2022-11-07T04:36:19.537Z,72.14
2022-11-07T04:38:46.110Z,72.31
2022-11-07T04:41:19.626Z,72.53
2022-11-07T04:43:46.389Z,73.01
2022-11-07T04:46:12.915Z,73.00
2022-11-07T04:48:39.462Z,72.85
2022-11-07T04:51:06.142Z,72.93
2022-11-07T04:53:32.742Z,72.93
2022-11-07T04:55:59.238Z,72.93
2022-11-07T04:58:25.857Z,73.03
2022-11-07T05:00:52.441Z,73.51
2022-11-07T05:03:19.313Z,73.26
2022-11-07T05:05:46.156Z,73.01
2022-11-07T05:08:12.692Z,73.11
2022-11-07T05:10:39.293Z,72.96
2022-11-07T05:13:05.878Z,73.14
2022-11-07T05:15:32.454Z,73.30
2022-11-07T05:17:59.033Z,73.58
2022-11-07T05:20:28.002Z,73.42
2022-11-07T05:23:13.902Z,73.25
2022-11-07T05:25:45.247Z,73.14
2022-11-07T05:28:12.426Z,73.12
2022-11-07T05:30:40.357Z,73.35
2022-11-07T05:33:07.661Z,73.14
2022-11-07T05:35:35.203Z,73.21
2022-11-07T05:38:01.928Z,73.55
2022-11-07T05:40:28.580Z,73.52
2022-11-07T05:43:01.756Z,73.64
2022-11-07T05:45:28.722Z,73.82
2022-11-07T05:47:59.170Z,74.06
2022-11-07T05:50:26.034Z,74.14
2022-11-07T05:52:53.291Z,74.62
2022-11-07T05:55:20.068Z,74.38
2022-11-07T05:57:46.740Z,74.52
2022-11-07T06:00:13.578Z,75.11
2022-11-07T06:02:40.208Z,75.15
2022-11-07T06:05:06.967Z,75.54
2022-11-07T06:07:37.181Z,75.62
2022-11-07T06:10:04.615Z,75.90
2022-11-07T06:12:31.180Z,75.94
2022-11-07T06:14:57.823Z,76.17
2022-11-07T06:17:24.382Z,76.33
2022-11-07T06:19:50.956Z,76.58
2022-11-07T06:22:17.518Z,76.46
2022-11-07T06:24:44.010Z,76.00
2022-11-07T06:27:10.516Z,76.13
2022-11-07T06:29:37.030Z,76.46
2022-11-07T06:32:03.647Z,76.52
2022-11-07T06:34:30.176Z,76.46
2022-11-07T06:37:02.950Z,76.50
2022-11-07T06:39:30.040Z,76.67
2022-11-07T06:41:56.611Z,76.78
2022-11-07T06:44:23.204Z,76.86
2022-11-07T06:46:49.799Z,76.95
2022-11-07T06:49:16.617Z,76.88
2022-11-07T06:51:47.855Z,76.78
2022-11-07T06:54:14.973Z,76.71
2022-11-07T06:56:41.550Z,76.87
2022-11-07T06:59:08.105Z,76.60
2022-11-07T07:01:34.803Z,76.43
2022-11-07T07:04:01.511Z,75.96
2022-11-07T07:06:28.079Z,74.80
2022-11-07T07:08:54.847Z,74.35
2022-11-07T07:11:21.324Z,74.23
2022-11-07T07:13:47.934Z,74.38
2022-11-07T07:16:14.425Z,74.55
2022-11-07T07:18:40.945Z,74.03
2022-11-07T07:21:11.164Z,73.90
2022-11-07T07:23:38.713Z,73.77
2022-11-07T07:26:06.240Z,73.82
2022-11-07T07:28:33.023Z,73.57
2022-11-07T07:31:19.876Z,73.46
2022-11-07T07:33:46.886Z,73.14
2022-11-07T07:36:19.265Z,73.20
2022-11-07T07:38:47.465Z,73.41
2022-11-07T07:41:14.091Z,73.58
2022-11-07T07:43:40.705Z,73.03
2022-11-07T07:46:07.879Z,73.21
2022-11-07T07:48:34.729Z,72.68
2022-11-07T07:51:01.351Z,73.05
2022-11-07T07:53:27.920Z,73.33
2022-11-07T07:56:00.506Z,73.09
2022-11-07T07:58:27.200Z,72.47
2022-11-07T08:00:59.729Z,72.37
2022-11-07T08:03:29.327Z,72.29
2022-11-07T08:06:01.836Z,71.86
2022-11-07T08:08:30.435Z,71.42
2022-11-07T08:11:03.196Z,71.16
2022-11-07T08:13:30.251Z,70.67
2022-11-07T08:15:56.804Z,70.95
2022-11-07T08:18:24.149Z,70.68
2022-11-07T08:20:51.402Z,70.07
2022-11-07T08:23:18.493Z,70.21
2022-11-07T08:25:52.639Z,70.08
2022-11-07T08:28:19.604Z,69.94
2022-11-07T08:30:46.209Z,69.54
2022-11-07T08:33:13.318Z,69.97
2022-11-07T08:35:42.634Z,69.78
2022-11-07T08:38:09.720Z,69.99
2022-11-07T08:40:36.229Z,69.79
2022-11-07T08:43:02.830Z,69.76
2022-11-07T08:45:29.419Z,70.18
2022-11-07T08:47:56.602Z,70.03
2022-11-07T08:50:23.098Z,69.44
2022-11-07T08:52:49.675Z,69.39
2022-11-07T08:55:16.188Z,69.65
2022-11-07T08:57:42.705Z,69.54
2022-11-07T09:00:09.571Z,69.18
2022-11-07T09:03:12.571Z,69.25
2022-11-07T09:05:22.889Z,69.15
2022-11-07T09:07:49.452Z,68.89
2022-11-07T09:10:16.027Z,68.86
2022-11-07T09:12:46.056Z,68.93
2022-11-07T09:15:12.912Z,68.47
2022-11-07T09:17:39.536Z,68.91
2022-11-07T09:20:06.359Z,68.16
2022-11-07T09:22:32.903Z,68.07
2022-11-07T09:24:59.407Z,68.09
2022-11-07T09:27:25.970Z,68.08
2022-11-07T09:29:52.501Z,67.94
2022-11-07T09:32:43.244Z,67.34
2022-11-07T09:35:05.884Z,67.10
2022-11-07T09:37:32.436Z,66.40
2022-11-07T09:39:58.960Z,67.17
2022-11-07T09:42:47.305Z,66.75
2022-11-07T09:45:14.137Z,66.86
2022-11-07T09:47:45.309Z,66.21
2022-11-07T09:50:19.627Z,66.00
2022-11-07T09:52:46.202Z,65.80
2022-11-07T09:55:29.273Z,65.61
2022-11-07T09:57:57.587Z,65.72
2022-11-07T10:00:24.208Z,65.77
2022-11-07T10:02:52.757Z,65.52
2022-11-07T10:05:24.610Z,65.61
2022-11-07T10:08:07.903Z,65.81
2022-11-07T10:10:41.551Z,66.17
2022-11-07T10:13:17.359Z,65.92
2022-11-07T10:15:50.245Z,64.61
2022-11-07T10:18:34.374Z,64.98
2022-11-07T10:21:39.679Z,65.15
2022-11-07T10:24:09.303Z,64.88
2022-11-07T10:26:36.845Z,65.24
2022-11-07T10:29:13.631Z,63.96
2022-11-07T10:31:41.911Z,64.95
2022-11-07T10:34:27.602Z,64.40
2022-11-07T10:36:54.182Z,64.70
2022-11-07T10:39:20.794Z,64.03
2022-11-07T10:41:53.111Z,64.30
2022-11-07T10:44:23.980Z,64.29
2022-11-07T10:46:53.421Z,63.53
2022-11-07T10:49:21.310Z,63.43
2022-11-07T10:51:48.136Z,63.82
2022-11-07T10:54:33.285Z,64.63
2022-11-07T10:57:03.190Z,65.00
2022-11-07T10:59:35.846Z,64.75
2022-11-07T11:02:03.983Z,63.04
2022-11-07T11:04:31.775Z,63.20
2022-11-07T11:07:01.409Z,63.22
2022-11-07T11:09:28.606Z,64.04
2022-11-07T11:11:55.149Z,63.74
2022-11-07T11:14:21.712Z,64.11
2022-11-07T11:16:50.247Z,64.15
2022-11-07T11:19:18.822Z,63.61
2022-11-07T11:21:46.179Z,63.63
2022-11-07T11:24:13.522Z,62.43
2022-11-07T11:26:40.569Z,62.78
2022-11-07T11:29:09.207Z,61.77
2022-11-07T11:31:37.149Z,63.18
2022-11-07T11:34:04.956Z,62.26
2022-11-07T11:36:34.285Z,61.48
2022-11-07T11:39:00.810Z,63.16
2022-11-07T11:41:33.788Z,61.96
2022-11-07T11:44:03.418Z,62.70
2022-11-07T11:46:33.859Z,62.55
2022-11-07T11:49:01.675Z,61.70
2022-11-07T11:51:37.781Z,61.86
2022-11-07T11:54:05.925Z,61.91
2022-11-07T11:56:52.284Z,62.10
2022-11-07T11:59:18.769Z,61.89
2022-11-07T12:01:45.375Z,64.14
2022-11-07T12:04:11.939Z,61.26
2022-11-07T12:06:39.881Z,62.33
2022-11-07T12:09:27.637Z,62.69
2022-11-07T12:11:57.255Z,61.70
2022-11-07T12:14:37.110Z,61.26
2022-11-07T12:17:29.965Z,61.54
2022-11-07T12:20:15.322Z,63.24
2022-11-07T12:22:45.106Z,61.17
2022-11-07T12:25:31.941Z,59.46
2022-11-07T12:28:04.829Z,60.09
2022-11-07T12:30:35.731Z,60.02
2022-11-07T12:33:12.270Z,59.18
2022-11-07T12:35:57.519Z,60.27
2022-11-07T12:38:41.423Z,59.08
2022-11-07T12:41:26.659Z,59.88
2022-11-07T12:44:02.160Z,59.79
2022-11-07T12:46:40.818Z,59.49
2022-11-07T12:49:13.491Z,59.59
2022-11-07T12:51:58.759Z,59.66
2022-11-07T12:54:31.086Z,59.91
2022-11-07T12:56:57.657Z,59.06
2022-11-07T12:59:26.503Z,59.93
2022-11-07T13:01:53.279Z,59.40
2022-11-07T13:04:20.854Z,59.16
2022-11-07T13:06:50.285Z,58.16
2022-11-07T13:09:17.870Z,59.71
2022-11-07T13:11:44.389Z,58.92
2022-11-07T13:14:24.904Z,59.20
2022-11-07T13:17:10.113Z,58.87
2022-11-07T13:19:38.168Z,58.33
2022-11-07T13:22:06.144Z,59.89
2022-11-07T13:24:33.647Z,60.90
2022-11-07T13:27:00.263Z,61.54
2022-11-07T13:29:27.504Z,61.27
2022-11-07T13:32:07.697Z,59.93
2022-11-07T13:34:45.176Z,63.00
2022-11-07T13:37:26.076Z,61.21
2022-11-07T13:39:54.283Z,63.68
2022-11-07T13:42:20.854Z,64.58
2022-11-07T13:44:51.614Z,63.35
2022-11-07T13:47:20.882Z,63.68
2022-11-07T13:49:47.402Z,63.95
2022-11-07T13:52:23.101Z,62.64
2022-11-07T13:54:53.985Z,64.10
2022-11-07T13:57:25.559Z,64.35
2022-11-07T13:59:57.100Z,65.16
2022-11-07T14:02:27.731Z,64.72
2022-11-07T14:05:15.289Z,65.24
2022-11-07T14:07:43.831Z,62.90
2022-11-07T14:10:30.763Z,64.53
2022-11-07T14:13:03.720Z,65.59
2022-11-07T14:15:30.466Z,65.83
2022-11-07T14:17:57.081Z,65.94
2022-11-07T14:20:23.613Z,65.41
2022-11-07T14:22:51.489Z,65.12
2022-11-07T14:25:20.814Z,65.56
2022-11-07T14:27:47.348Z,65.54
2022-11-07T14:30:18.092Z,66.29
2022-11-07T14:32:48.726Z,65.42
2022-11-07T14:35:17.709Z,64.94
2022-11-07T14:37:44.318Z,64.83
2022-11-07T14:40:11.126Z,65.42
2022-11-07T14:42:38.216Z,64.38
2022-11-07T14:45:05.067Z,64.69
2022-11-07T14:47:32.489Z,65.11
2022-11-07T14:49:59.236Z,66.07
2022-11-07T14:52:26.879Z,65.71
2022-11-07T14:54:57.152Z,66.65
2022-11-07T14:57:23.674Z,66.38
2022-11-07T14:59:50.265Z,65.95
2022-11-07T15:02:30.649Z,66.35
2022-11-07T15:05:05.335Z,67.15
2022-11-07T15:07:35.826Z,67.09
2022-11-07T15:10:19.322Z,67.10
2022-11-07T15:12:54.457Z,65.07
2022-11-07T15:15:22.341Z,64.42
2022-11-07T15:17:52.967Z,64.99
2022-11-07T15:20:35.372Z,65.83
2022-11-07T15:23:14.087Z,65.29
2022-11-07T15:25:42.914Z,66.12
2022-11-07T15:28:35.935Z,66.61
2022-11-07T15:31:02.572Z,67.76
2022-11-07T15:33:29.673Z,67.85
2022-11-07T15:35:57.045Z,68.35
2022-11-07T15:38:24.631Z,67.98
2022-11-07T15:40:51.806Z,68.56
2022-11-07T15:43:18.500Z,69.01
2022-11-07T15:45:45.110Z,68.82
2022-11-07T15:48:19.462Z,69.08
2022-11-07T15:50:46.700Z,69.28
2022-11-07T15:53:23.821Z,69.34
2022-11-07T15:55:54.695Z,68.13
2022-11-07T15:58:25.006Z,66.16
2022-11-07T16:00:51.946Z,65.46
2022-11-07T16:03:19.303Z,64.77
2022-11-07T16:05:47.415Z,64.65
2022-11-07T16:08:23.966Z,64.31
2022-11-07T16:10:51.570Z,64.33
2022-11-07T16:13:18.067Z,64.91
2022-11-07T16:15:49.038Z,65.22
2022-11-07T16:18:17.101Z,65.55
2022-11-07T16:20:44.105Z,66.54
2022-11-07T16:23:10.871Z,66.58
2022-11-07T16:25:37.947Z,66.36
2022-11-07T16:28:04.582Z,66.49
2022-11-07T16:30:31.934Z,66.71
2022-11-07T16:32:58.546Z,66.15
2022-11-07T16:35:25.132Z,67.04
2022-11-07T16:37:51.915Z,66.86
2022-11-07T16:40:19.291Z,67.00
2022-11-07T16:42:45.988Z,67.52
2022-11-07T16:45:16.759Z,68.19
2022-11-07T16:47:46.392Z,68.92
2022-11-07T16:50:13.793Z,69.29
2022-11-07T16:52:40.541Z,70.08
2022-11-07T16:55:07.533Z,70.07
2022-11-07T16:57:35.255Z,70.71
2022-11-07T17:00:02.437Z,70.86
2022-11-07T17:02:34.306Z,70.96
2022-11-07T17:05:08.590Z,70.54
2022-11-07T17:07:35.991Z,71.30
2022-11-07T17:10:06.661Z,71.41
2022-11-07T17:12:33.298Z,71.03
2022-11-07T17:14:59.844Z,70.86
2022-11-07T17:17:26.579Z,70.85
2022-11-07T17:19:53.080Z,71.16
2022-11-07T17:22:20.068Z,71.69
2022-11-07T17:24:46.603Z,71.77
2022-11-07T17:27:20.976Z,72.07
2022-11-07T17:29:47.625Z,72.16
2022-11-07T17:32:14.189Z,72.26
2022-11-07T17:34:40.691Z,71.97
2022-11-07T17:37:09.531Z,71.50
2022-11-07T17:39:36.055Z,71.38
2022-11-07T17:42:02.939Z,70.17
2022-11-07T17:44:29.520Z,71.64
2022-11-07T17:46:56.105Z,71.06
2022-11-07T17:49:22.598Z,71.72
2022-11-07T17:51:49.196Z,72.10
2022-11-07T17:54:18.002Z,71.74
2022-11-07T17:56:48.164Z,72.05
2022-11-07T17:59:16.097Z,72.00
2022-11-07T18:01:43.095Z,72.33
2022-11-07T18:04:10.641Z,72.66
2022-11-07T18:06:38.207Z,72.21
2022-11-07T18:09:06.263Z,71.90
2022-11-07T18:11:36.206Z,72.53
2022-11-07T18:14:02.894Z,72.48
2022-11-07T18:16:34.454Z,72.66
2022-11-07T18:19:01.638Z,72.87
2022-11-07T18:21:29.030Z,72.95
2022-11-07T18:23:55.697Z,73.18
2022-11-07T18:26:30.256Z,73.24
2022-11-07T18:28:57.534Z,73.67
2022-11-07T18:31:24.341Z,73.06
2022-11-07T18:33:52.871Z,72.97
2022-11-07T18:36:21.163Z,72.78
2022-11-07T18:38:47.712Z,72.55
2022-11-07T18:41:15.381Z,72.74
2022-11-07T18:43:42.124Z,72.51
2022-11-07T18:46:09.855Z,72.27
2022-11-07T18:48:37.056Z,71.93
2022-11-07T18:51:04.294Z,70.48
2022-11-07T18:53:30.846Z,70.99
2022-11-07T18:55:58.066Z,69.93
2022-11-07T18:58:24.958Z,70.69
2022-11-07T19:00:51.767Z,70.61
2022-11-07T19:03:18.687Z,70.90
2022-11-07T19:05:45.412Z,71.55
2022-11-07T19:08:11.915Z,71.63
2022-11-07T19:10:38.460Z,71.95
2022-11-07T19:13:08.120Z,72.49
2022-11-07T19:15:38.720Z,72.42
2022-11-07T19:18:05.315Z,72.80
2022-11-07T19:20:31.892Z,72.60
2022-11-07T19:22:58.509Z,72.48
2022-11-07T19:25:25.160Z,72.62
2022-11-07T19:27:51.789Z,72.06
2022-11-07T19:30:18.682Z,72.06
2022-11-07T19:32:45.885Z,71.64
2022-11-07T19:35:12.565Z,72.48
2022-11-07T19:37:39.163Z,72.98
2022-11-07T19:40:06.191Z,72.85
2022-11-07T19:42:32.895Z,73.15
2022-11-07T19:44:59.593Z,73.04
2022-11-07T19:47:26.143Z,73.15
2022-11-07T19:49:52.741Z,72.80
2022-11-07T19:52:19.350Z,73.08
2022-11-07T19:54:45.935Z,73.07
2022-11-07T19:57:12.501Z,73.00
2022-11-07T19:59:38.997Z,73.20
2022-11-07T20:04:53.652Z,72.87
2022-11-07T20:07:20.352Z,73.01
2022-11-07T20:09:46.837Z,73.27
2022-11-07T20:12:13.330Z,73.29
2022-11-07T20:14:39.844Z,73.42
2022-11-07T20:17:06.495Z,73.15
2022-11-07T20:19:34.054Z,73.52
2022-11-07T20:22:01.188Z,73.39
2022-11-07T20:24:28.008Z,73.04
2022-11-07T20:26:54.767Z,73.05
2022-11-07T20:29:22.996Z,73.43
2022-11-07T20:31:49.781Z,73.62
2022-11-07T20:34:17.602Z,72.95
2022-11-07T20:36:44.348Z,72.98
2022-11-07T20:39:11.428Z,72.86
2022-11-07T20:41:38.319Z,72.15
2022-11-07T20:44:05.940Z,73.09
2022-11-07T20:46:37.226Z,73.25
2022-11-07T20:49:04.650Z,73.21
2022-11-07T20:51:31.624Z,73.62
2022-11-07T20:53:59.257Z,74.00
2022-11-07T20:56:26.637Z,73.79
2022-11-07T20:58:53.344Z,74.16
2022-11-07T21:01:24.956Z,74.11
2022-11-07T21:03:51.588Z,74.28
2022-11-07T21:06:18.787Z,74.09
2022-11-07T21:08:46.454Z,74.29
2022-11-07T21:11:13.531Z,74.36
2022-11-07T21:13:40.093Z,74.36
2022-11-07T21:16:06.849Z,74.25
2022-11-07T21:18:33.375Z,74.35
2022-11-07T21:21:07.005Z,73.28
2022-11-07T21:23:33.724Z,72.22
2022-11-07T21:26:00.305Z,71.81
2022-11-07T21:28:26.930Z,71.72
2022-11-07T21:31:03.147Z,72.67
2022-11-07T21:33:29.874Z,73.22
2022-11-07T21:35:56.407Z,73.51
2022-11-07T21:38:23.177Z,74.11
2022-11-07T21:40:49.730Z,74.11
2022-11-07T21:43:16.593Z,74.43
2022-11-07T21:45:43.344Z,74.64
2022-11-07T21:48:10.158Z,74.69
2022-11-07T21:50:45.301Z,74.86
2022-11-07T21:53:12.581Z,75.06
2022-11-07T21:55:39.527Z,74.91
2022-11-07T21:58:06.140Z,74.75
2022-11-07T22:00:36.894Z,74.47
2022-11-07T22:03:04.092Z,74.32
2022-11-07T22:05:30.642Z,74.06
2022-11-07T22:07:57.249Z,73.82
2022-11-07T22:10:23.835Z,73.94
2022-11-07T22:12:52.407Z,73.87
2022-11-07T22:15:18.939Z,74.46
2022-11-07T22:17:46.629Z,74.16
2022-11-07T22:20:13.114Z,74.59
2022-11-07T22:22:39.655Z,74.30
2022-11-07T22:25:06.622Z,74.84
2022-11-07T22:27:33.133Z,74.50
2022-11-07T22:29:59.681Z,74.72
2022-11-07T22:32:26.204Z,74.70
2022-11-07T22:34:52.749Z,74.63
2022-11-07T22:37:19.309Z,74.27
2022-11-07T22:39:45.848Z,74.25
2022-11-07T22:42:12.344Z,74.46
2022-11-07T22:44:39.030Z,74.38
2022-11-07T22:47:05.555Z,74.27
2022-11-07T22:49:32.117Z,74.66
2022-11-07T22:51:58.802Z,74.41
2022-11-07T22:54:25.367Z,74.27
2022-11-07T22:56:51.970Z,74.35
2022-11-07T22:59:18.548Z,73.74
2022-11-07T23:01:45.092Z,73.66
2022-11-07T23:04:13.360Z,73.36
2022-11-07T23:06:39.906Z,74.21
2022-11-07T23:09:06.438Z,74.17
2022-11-07T23:11:49.377Z,74.08
2022-11-07T23:14:17.513Z,73.93
2022-11-07T23:16:45.081Z,74.55
2022-11-07T23:19:12.622Z,74.56
2022-11-07T23:21:39.238Z,74.77
2022-11-07T23:24:06.008Z,75.07
2022-11-07T23:26:34.058Z,75.30
2022-11-07T23:29:10.087Z,75.19
2022-11-07T23:31:37.465Z,75.38
2022-11-07T23:34:03.973Z,75.23
2022-11-07T23:36:30.469Z,75.30
2022-11-07T23:38:57.039Z,75.24
2022-11-07T23:41:23.537Z,74.42
2022-11-07T23:43:52.601Z,74.59
2022-11-07T23:46:37.970Z,74.56
2022-11-07T23:49:23.230Z,74.62
2022-11-07T23:51:49.815Z,73.44
2022-11-07T23:54:34.820Z,73.01
2022-11-07T23:57:01.340Z,73.18
2022-11-07T23:59:46.724Z,73.26
